createdAt,value
2022-12-25T00:02:03.416Z,100903.34
2022-12-25T00:04:32.741Z,100896.38
2022-12-25T00:07:01.568Z,100897.13
2022-12-25T00:09:31.062Z,100898.84
2022-12-25T00:11:59.971Z,100900.56
2022-12-25T00:14:28.873Z,100901.44
2022-12-25T00:16:57.827Z,100902.28
2022-12-25T00:19:28.035Z,100813.59
2022-12-25T00:21:59.188Z,100868.81
2022-12-25T00:24:28.612Z,100915.38
2022-12-25T00:26:57.581Z,100915.31
2022-12-25T00:29:26.700Z,100918.84
2022-12-25T00:31:55.698Z,100924.09
2022-12-25T00:34:28.327Z,100730.16
2022-12-25T00:36:57.341Z,100930.16
2022-12-25T00:39:28.687Z,100938.00
2022-12-25T00:42:16.837Z,100934.44
2022-12-25T00:44:45.594Z,100848.31
2022-12-25T00:47:14.666Z,100930.97
2022-12-25T00:49:45.354Z,100771.22
2022-12-25T00:52:14.421Z,100940.63
2022-12-25T00:54:43.276Z,100922.06
2022-12-25T00:57:12.291Z,100947.63
2022-12-25T00:59:40.816Z,100893.06
2022-12-25T01:02:25.491Z,100953.56
2022-12-25T01:04:58.164Z,100630.63
2022-12-25T01:07:32.688Z,100950.91
2022-12-25T01:10:18.767Z,100958.72
2022-12-25T01:12:47.759Z,100951.72
2022-12-25T01:15:16.669Z,100951.69
2022-12-25T01:17:46.768Z,100842.81
2022-12-25T01:20:19.460Z,100940.16
2022-12-25T01:22:48.481Z,100965.63
2022-12-25T01:25:17.394Z,100960.22
2022-12-25T01:27:46.478Z,100964.56
2022-12-25T01:30:15.724Z,100955.78
2022-12-25T01:32:44.823Z,100961.88
2022-12-25T01:35:13.801Z,100965.31
2022-12-25T01:37:43.917Z,100972.31
2022-12-25T01:40:13.602Z,100976.69
2022-12-25T01:42:42.340Z,100751.91
2022-12-25T01:45:37.547Z,100979.44
2022-12-25T01:48:12.688Z,100773.88
2022-12-25T01:50:46.896Z,100974.16
2022-12-25T01:53:17.512Z,100981.16
2022-12-25T01:55:49.087Z,100994.28
2022-12-25T01:58:19.433Z,100691.25
2022-12-25T02:00:49.619Z,100991.69
2022-12-25T02:03:19.413Z,100997.72
2022-12-25T02:05:49.549Z,100895.81
2022-12-25T02:08:22.870Z,100932.63
2022-12-25T02:10:51.872Z,100986.16
2022-12-25T02:13:22.262Z,100782.28
2022-12-25T02:16:02.379Z,100892.84
2022-12-25T02:18:43.498Z,101003.47
2022-12-25T02:21:51.662Z,100971.81
2022-12-25T02:24:59.548Z,100993.75
2022-12-25T02:28:14.622Z,100998.16
2022-12-25T02:30:58.167Z,101012.19
2022-12-25T02:33:53.114Z,101009.66
2022-12-25T02:36:28.588Z,101002.56
2022-12-25T02:39:21.548Z,101014.66
2022-12-25T02:41:54.926Z,100805.47
2022-12-25T02:44:45.500Z,100947.75
2022-12-25T02:47:32.137Z,101005.84
2022-12-25T02:50:19.679Z,100727.19
2022-12-25T02:53:08.060Z,100897.56
2022-12-25T02:55:59.925Z,101016.28
2022-12-25T02:58:46.890Z,100937.16
2022-12-25T03:01:39.326Z,100799.03
2022-12-25T03:04:32.200Z,100976.53
2022-12-25T03:07:09.254Z,100926.28
2022-12-25T03:09:59.751Z,101014.22
2022-12-25T03:12:47.562Z,100981.56
2022-12-25T03:15:34.117Z,101021.19
2022-12-25T03:18:10.948Z,101016.78
2022-12-25T03:20:57.773Z,101018.44
2022-12-25T03:23:50.416Z,100755.41
2022-12-25T03:26:36.976Z,101005.13
2022-12-25T03:29:06.066Z,101001.56
2022-12-25T03:31:45.168Z,100985.72
2022-12-25T03:34:57.367Z,100866.72
2022-12-25T03:38:11.593Z,101004.16
2022-12-25T03:41:15.409Z,100907.25
2022-12-25T03:44:11.075Z,100831.53
2022-12-25T03:47:20.067Z,100957.22
2022-12-25T03:50:19.750Z,100904.53
2022-12-25T03:53:08.786Z,100866.72
2022-12-25T03:55:57.175Z,101010.03
2022-12-25T03:58:45.466Z,101021.34
2022-12-25T04:01:32.437Z,101030.84
2022-12-25T04:04:32.112Z,101034.34
2022-12-25T04:07:19.356Z,101007.75
2022-12-25T04:10:05.611Z,101040.38
2022-12-25T04:12:51.629Z,101048.22
2022-12-25T04:15:46.144Z,101016.44
2022-12-25T04:18:35.105Z,100961.63
2022-12-25T04:21:21.372Z,100973.28
2022-12-25T04:24:08.833Z,101034.78
2022-12-25T04:26:57.777Z,100904.53
2022-12-25T04:29:43.827Z,101074.38
2022-12-25T04:32:29.979Z,101082.94
2022-12-25T04:35:16.688Z,101078.59
2022-12-25T04:37:45.605Z,101081.50
2022-12-25T04:40:19.510Z,101083.53
2022-12-25T04:42:50.896Z,101077.56
2022-12-25T04:45:19.965Z,101068.06
2022-12-25T04:47:48.922Z,101065.44
2022-12-25T04:50:17.840Z,101065.44
2022-12-25T04:52:47.739Z,101062.78
2022-12-25T04:55:17.978Z,100829.41
2022-12-25T04:57:49.795Z,101072.88
2022-12-25T05:00:22.007Z,100771.97
2022-12-25T05:02:52.693Z,101087.56
2022-12-25T05:05:21.874Z,101020.59
2022-12-25T05:07:50.883Z,101077.88
2022-12-25T05:10:21.865Z,101081.31
2022-12-25T05:12:51.191Z,101075.25
2022-12-25T05:15:20.363Z,101074.41
2022-12-25T05:17:50.733Z,101079.56
2022-12-25T05:20:20.441Z,100871.75
2022-12-25T05:22:49.442Z,101089.03
2022-12-25T05:25:18.424Z,101093.41
2022-12-25T05:27:54.041Z,101003.78
2022-12-25T05:30:23.370Z,101092.97
2022-12-25T05:32:52.306Z,101086.94
2022-12-25T05:35:21.316Z,101096.50
2022-12-25T05:37:50.210Z,101096.38
2022-12-25T05:40:19.096Z,101107.59
2022-12-25T05:42:49.150Z,101003.47
2022-12-25T05:45:18.133Z,101096.13
2022-12-25T05:47:46.986Z,101095.28
2022-12-25T05:50:15.866Z,101096.16
2022-12-25T05:52:44.754Z,101087.41
2022-12-25T05:55:13.723Z,101089.06
2022-12-25T05:57:44.934Z,101099.47
2022-12-25T06:00:16.160Z,101002.59
2022-12-25T06:02:45.279Z,101096.00
2022-12-25T06:05:16.918Z,101033.47
2022-12-25T06:07:45.886Z,101081.94
2022-12-25T06:10:14.934Z,101090.50
2022-12-25T06:12:44.011Z,101086.97
2022-12-25T06:15:14.529Z,101085.22
2022-12-25T06:17:51.193Z,100966.41
2022-12-25T06:20:23.126Z,100982.28
2022-12-25T06:22:52.060Z,101070.41
2022-12-25T06:25:20.932Z,101080.91
2022-12-25T06:27:53.690Z,100736.94
2022-12-25T06:30:23.831Z,101032.50
2022-12-25T06:32:52.767Z,101080.03
2022-12-25T06:35:23.581Z,101073.09
2022-12-25T06:37:54.902Z,101073.13
2022-12-25T06:40:23.589Z,101069.56
2022-12-25T06:42:55.104Z,101061.69
2022-12-25T06:45:26.377Z,101066.91
2022-12-25T06:47:55.378Z,101069.53
2022-12-25T06:50:28.521Z,101059.97
2022-12-25T06:52:58.540Z,101044.00
2022-12-25T06:55:27.312Z,101058.16
2022-12-25T06:57:56.188Z,101061.69
2022-12-25T07:00:33.650Z,100971.75
2022-12-25T07:03:06.908Z,100799.47
2022-12-25T07:05:47.827Z,101062.69
2022-12-25T07:08:25.991Z,101068.75
2022-12-25T07:10:56.297Z,101077.41
2022-12-25T07:13:26.243Z,101078.25
2022-12-25T07:16:00.546Z,101079.09
2022-12-25T07:18:30.375Z,101098.25
2022-12-25T07:21:00.376Z,100939.63
2022-12-25T07:23:29.913Z,101108.75
2022-12-25T07:26:00.695Z,101111.28
2022-12-25T07:28:32.141Z,101124.59
2022-12-25T07:31:08.819Z,101130.81
2022-12-25T07:33:38.773Z,101130.78
2022-12-25T07:36:12.494Z,101002.06
2022-12-25T07:38:46.539Z,101134.09
2022-12-25T07:41:18.003Z,101092.69
2022-12-25T07:43:55.045Z,101127.88
2022-12-25T07:46:25.837Z,100999.16
2022-12-25T07:48:54.769Z,101142.81
2022-12-25T07:51:23.596Z,101126.25
2022-12-25T07:53:52.808Z,101139.66
2022-12-25T07:56:22.596Z,101136.09
2022-12-25T07:58:51.555Z,101147.56
2022-12-25T08:01:25.138Z,100987.16
2022-12-25T08:04:00.483Z,100918.69
2022-12-25T08:06:35.569Z,101109.88
2022-12-25T08:09:12.777Z,101132.88
2022-12-25T08:11:46.880Z,100937.47
2022-12-25T08:14:16.490Z,101140.16
2022-12-25T08:16:48.275Z,101144.66
2022-12-25T08:19:19.054Z,101027.59
2022-12-25T08:21:47.912Z,101133.47
2022-12-25T08:24:19.814Z,101129.19
2022-12-25T08:26:50.136Z,101122.38
2022-12-25T08:32:08.017Z,101130.38
2022-12-25T08:34:41.075Z,100998.47
2022-12-25T08:37:09.936Z,101130.53
2022-12-25T08:39:38.647Z,101072.59
2022-12-25T08:42:07.799Z,101133.41
2022-12-25T08:44:38.998Z,101118.69
2022-12-25T08:47:08.033Z,101113.50
2022-12-25T08:49:36.851Z,101109.22
2022-12-25T08:52:07.867Z,101118.00
2022-12-25T08:54:36.894Z,101117.19
2022-12-25T08:57:09.219Z,101115.56
2022-12-25T08:59:38.194Z,101114.69
2022-12-25T09:02:08.548Z,101113.00
2022-12-25T09:04:39.887Z,101119.16
2022-12-25T09:07:24.329Z,100950.34
2022-12-25T09:09:53.757Z,101114.03
2022-12-25T09:12:25.267Z,101109.66
2022-12-25T09:14:54.368Z,101106.31
2022-12-25T09:17:23.563Z,101109.03
2022-12-25T09:19:52.572Z,101103.84
2022-12-25T09:22:22.560Z,101106.53
2022-12-25T09:27:34.838Z,101091.88
2022-12-25T09:30:03.693Z,101040.88
2022-12-25T09:32:32.597Z,101081.53
2022-12-25T09:35:01.905Z,101074.63
2022-12-25T09:37:32.233Z,101047.47
2022-12-25T09:40:02.638Z,101070.44
2022-12-25T09:42:34.599Z,100997.53
2022-12-25T09:45:14.182Z,101060.94
2022-12-25T09:47:48.236Z,101038.22
2022-12-25T09:50:29.658Z,100983.81
2022-12-25T09:53:11.790Z,101013.75
2022-12-25T09:55:55.203Z,100998.03
2022-12-25T09:59:02.980Z,100736.50
2022-12-25T10:01:49.242Z,101023.72
2022-12-25T10:04:52.980Z,100996.56
2022-12-25T10:07:42.063Z,100957.94
2022-12-25T10:10:42.254Z,100923.78
2022-12-25T10:13:41.421Z,100997.59
2022-12-25T10:16:23.192Z,100857.16
2022-12-25T10:19:16.071Z,100788.84
2022-12-25T10:21:45.353Z,100994.31
2022-12-25T10:24:33.031Z,101006.59
2022-12-25T10:27:09.500Z,100983.81
2022-12-25T10:29:39.969Z,101004.06
2022-12-25T10:32:11.728Z,101003.25
2022-12-25T10:34:43.811Z,100733.91
2022-12-25T10:37:13.725Z,100911.97
2022-12-25T10:39:46.629Z,101020.84
2022-12-25T10:42:34.731Z,100955.91
2022-12-25T10:45:07.987Z,101016.50
2022-12-25T10:47:42.052Z,101001.63
2022-12-25T10:50:18.495Z,100988.50
2022-12-25T10:53:00.606Z,100978.88
2022-12-25T10:55:29.946Z,100844.75
2022-12-25T10:58:02.028Z,100961.28
2022-12-25T11:00:33.920Z,100957.75
2022-12-25T11:03:03.149Z,100949.84
2022-12-25T11:05:34.712Z,100962.13
2022-12-25T11:08:05.180Z,100904.28
2022-12-25T11:10:37.803Z,100972.66
2022-12-25T11:13:20.883Z,100964.75
2022-12-25T11:15:52.817Z,100906.03
2022-12-25T11:18:25.638Z,100877.16
2022-12-25T11:20:59.189Z,100975.31
2022-12-25T11:23:30.729Z,100977.91
2022-12-25T11:26:05.017Z,100978.75
2022-12-25T11:28:38.814Z,100972.63
2022-12-25T11:31:14.894Z,100928.75
2022-12-25T11:33:54.626Z,100957.63
2022-12-25T11:36:35.578Z,100976.00
2022-12-25T11:39:22.264Z,100961.94
2022-12-25T11:41:57.405Z,100873.34
2022-12-25T11:44:43.974Z,100874.97
2022-12-25T11:47:23.027Z,100817.97
2022-12-25T11:50:00.729Z,100962.41
2022-12-25T11:52:36.934Z,100805.59
2022-12-25T11:55:20.178Z,100927.22
2022-12-25T11:57:58.980Z,100947.41
2022-12-25T12:00:36.162Z,100932.44
2022-12-25T12:03:17.506Z,100920.06
2022-12-25T12:05:51.067Z,100763.44
2022-12-25T12:08:20.508Z,100918.28
2022-12-25T12:11:19.417Z,100888.31
2022-12-25T12:14:18.836Z,100789.41
2022-12-25T12:16:49.637Z,100782.28
2022-12-25T12:19:31.951Z,100662.41
2022-12-25T12:22:05.034Z,100823.16
2022-12-25T12:24:43.011Z,100786.25
2022-12-25T12:27:27.383Z,100885.09
2022-12-25T12:30:00.122Z,100884.19
2022-12-25T12:32:41.848Z,100757.50
2022-12-25T12:35:20.422Z,100864.16
2022-12-25T12:37:55.091Z,100872.78
2022-12-25T12:40:33.194Z,100854.28
2022-12-25T12:43:03.145Z,100828.84
2022-12-25T12:45:37.718Z,100837.44
2022-12-25T12:48:26.187Z,100833.03
2022-12-25T12:51:05.572Z,100831.34
2022-12-25T12:53:36.031Z,100813.84
2022-12-25T12:56:17.255Z,100812.19
2022-12-25T12:58:50.876Z,100564.13
2022-12-25T13:01:38.961Z,100722.22
2022-12-25T13:04:54.927Z,100822.75
2022-12-25T13:07:45.047Z,100822.03
2022-12-25T13:10:28.240Z,100848.31
2022-12-25T13:13:01.096Z,100788.00
2022-12-25T13:15:34.526Z,100852.72
2022-12-25T13:18:09.299Z,100832.59
2022-12-25T13:20:55.061Z,100843.03
2022-12-25T13:23:28.442Z,100846.63
2022-12-25T13:25:59.303Z,100851.13
2022-12-25T13:28:30.859Z,100840.59
2022-12-25T13:31:15.085Z,100774.22
2022-12-25T13:33:48.474Z,100823.19
2022-12-25T13:36:18.682Z,100866.13
2022-12-25T13:38:51.331Z,100799.72
2022-12-25T13:41:40.083Z,100851.34
2022-12-25T13:44:20.744Z,100801.56
2022-12-25T13:46:52.027Z,100857.59
2022-12-25T13:49:23.644Z,100839.28
2022-12-25T13:51:53.566Z,100744.00
2022-12-25T13:54:22.863Z,100858.63
2022-12-25T13:56:54.736Z,100846.38
2022-12-25T13:59:26.605Z,100817.44
2022-12-25T14:01:58.722Z,100773.72
2022-12-25T14:04:27.668Z,100819.28
2022-12-25T14:06:57.472Z,100817.53
2022-12-25T14:09:26.147Z,100822.81
2022-12-25T14:11:55.024Z,100775.59
2022-12-25T14:14:28.912Z,100700.34
2022-12-25T14:17:00.810Z,100637.47
2022-12-25T14:19:32.457Z,100745.81
2022-12-25T14:22:12.570Z,100742.34
2022-12-25T14:24:41.889Z,100772.13
2022-12-25T14:27:22.045Z,100791.31
2022-12-25T14:29:54.098Z,100764.13
2022-12-25T14:32:25.403Z,100793.00
2022-12-25T14:35:00.455Z,100765.00
2022-12-25T14:37:37.085Z,100736.97
2022-12-25T14:40:22.882Z,100770.22
2022-12-25T14:43:00.193Z,100740.50
2022-12-25T14:45:32.853Z,100723.84
2022-12-25T14:48:04.440Z,100635.59
2022-12-25T14:50:37.430Z,100775.56
2022-12-25T14:53:19.305Z,100801.81
2022-12-25T14:55:53.704Z,100782.59
2022-12-25T14:58:27.118Z,100758.06
2022-12-25T15:00:59.478Z,100785.16
2022-12-25T15:03:32.048Z,100736.16
2022-12-25T15:06:02.674Z,100789.56
2022-12-25T15:08:35.784Z,100726.50
2022-12-25T15:11:04.585Z,100764.97
2022-12-25T15:13:36.613Z,100757.09
2022-12-25T15:16:15.392Z,100751.81
2022-12-25T15:18:47.729Z,100759.75
2022-12-25T15:21:22.289Z,100759.72
2022-12-25T15:23:53.690Z,100741.28
2022-12-25T15:26:23.072Z,100725.53
2022-12-25T15:28:53.575Z,100736.84
2022-12-25T15:31:26.133Z,100708.00
2022-12-25T15:33:56.383Z,100735.06
2022-12-25T15:36:26.267Z,100704.47
2022-12-25T15:38:57.967Z,100634.53
2022-12-25T15:41:47.467Z,100647.66
2022-12-25T15:44:16.520Z,100663.44
2022-12-25T15:46:46.007Z,100705.34
2022-12-25T15:49:16.032Z,100693.09
2022-12-25T15:51:46.403Z,100727.16
2022-12-25T15:54:16.522Z,100660.75
2022-12-25T15:56:49.821Z,100711.44
2022-12-25T15:59:21.671Z,100725.41
2022-12-25T16:01:53.450Z,100709.56
2022-12-25T16:04:22.932Z,100706.03
2022-12-25T16:06:54.158Z,100713.09
2022-12-25T16:09:24.496Z,100707.81
2022-12-25T16:11:53.359Z,100720.09
2022-12-25T16:14:21.930Z,100705.16
2022-12-25T16:16:50.715Z,100710.44
2022-12-25T16:19:19.257Z,100718.34
2022-12-25T16:21:48.425Z,100713.09
2022-12-25T16:24:17.358Z,100706.94
2022-12-25T16:26:47.248Z,100709.59
2022-12-25T16:29:15.833Z,100706.06
2022-12-25T16:31:47.177Z,100711.34
2022-12-25T16:34:15.801Z,100699.16
2022-12-25T16:36:44.606Z,100708.75
2022-12-25T16:39:13.526Z,100700.00
2022-12-25T16:41:42.569Z,100702.63
2022-12-25T16:44:12.503Z,100705.28
2022-12-25T16:46:42.127Z,100663.31
2022-12-25T16:49:10.859Z,100695.63
2022-12-25T16:51:39.483Z,100587.28
2022-12-25T16:54:08.024Z,100571.50
2022-12-25T16:56:37.070Z,100687.69
2022-12-25T16:59:05.778Z,100669.31
2022-12-25T17:01:35.931Z,100559.22
2022-12-25T17:04:05.203Z,100645.75
2022-12-25T17:06:33.746Z,100670.19
2022-12-25T17:09:03.714Z,100604.63
2022-12-25T17:11:33.303Z,100672.84
2022-12-25T17:14:05.305Z,100637.03
2022-12-25T17:16:38.152Z,100663.19
2022-12-25T17:19:15.455Z,100648.31
2022-12-25T17:21:44.244Z,100650.91
2022-12-25T17:24:13.246Z,100544.28
2022-12-25T17:26:43.875Z,100630.72
2022-12-25T17:29:19.934Z,100626.31
2022-12-25T17:31:52.631Z,100612.25
2022-12-25T17:34:21.543Z,100551.94
2022-12-25T17:36:50.105Z,100587.75
2022-12-25T17:39:19.211Z,100586.81
2022-12-25T17:41:50.179Z,100571.03
2022-12-25T17:44:21.064Z,100556.13
2022-12-25T17:46:51.629Z,100556.13
2022-12-25T17:49:23.566Z,100458.47
2022-12-25T17:51:54.004Z,100529.13
2022-12-25T17:54:22.620Z,100519.41
2022-12-25T17:56:51.082Z,100453.03
2022-12-25T17:59:22.346Z,100416.31
2022-12-25T18:01:52.583Z,100290.72
2022-12-25T18:04:21.628Z,100511.25
2022-12-25T18:06:50.208Z,100490.31
2022-12-25T18:09:20.840Z,100496.31
2022-12-25T18:11:49.382Z,100478.03
2022-12-25T18:14:20.917Z,100409.09
2022-12-25T18:16:51.495Z,100443.13
2022-12-25T18:19:20.358Z,100496.41
2022-12-25T18:21:51.517Z,100479.81
2022-12-25T18:24:20.001Z,100478.84
2022-12-25T18:26:49.259Z,100482.25
2022-12-25T18:29:18.916Z,100473.41
2022-12-25T18:31:48.440Z,100476.91
2022-12-25T18:34:18.400Z,100471.66
2022-12-25T18:36:47.994Z,100420.97
2022-12-25T18:39:16.430Z,100259.81
2022-12-25T18:41:58.982Z,100442.84
2022-12-25T18:44:28.279Z,100476.91
2022-12-25T18:46:57.000Z,100469.00
2022-12-25T18:49:28.361Z,100466.38
2022-12-25T18:52:50.027Z,100409.53
2022-12-25T18:54:47.527Z,100447.00
2022-12-25T18:57:16.180Z,100441.69
2022-12-25T18:59:46.987Z,100439.91
2022-12-25T19:02:21.821Z,100405.03
2022-12-25T19:04:52.592Z,100344.06
2022-12-25T19:07:22.711Z,100363.22
2022-12-25T19:09:51.986Z,100461.81
2022-12-25T19:12:20.714Z,100430.28
2022-12-25T19:14:51.432Z,100446.00
2022-12-25T19:17:20.213Z,100434.72
2022-12-25T19:19:48.956Z,100450.44
2022-12-25T19:22:18.860Z,100437.22
2022-12-25T19:24:47.398Z,100354.31
2022-12-25T19:27:16.922Z,100411.69
2022-12-25T19:29:45.374Z,100392.53
2022-12-25T19:32:15.591Z,100411.63
2022-12-25T19:34:44.267Z,100405.47
2022-12-25T19:37:12.947Z,100334.94
2022-12-25T19:39:46.910Z,100416.91
2022-12-25T19:42:16.910Z,100416.88
2022-12-25T19:44:45.852Z,100409.88
2022-12-25T19:47:15.011Z,100392.41
2022-12-25T19:49:44.005Z,100387.19
2022-12-25T19:52:15.114Z,100373.28
2022-12-25T19:54:45.587Z,100392.41
2022-12-25T19:57:14.207Z,100388.88
2022-12-25T19:59:43.121Z,100289.59
2022-12-25T20:02:12.906Z,100381.09
2022-12-25T20:04:41.912Z,100388.81
2022-12-25T20:07:11.249Z,100390.56
2022-12-25T20:09:45.217Z,100394.03
2022-12-25T20:12:18.848Z,100307.91
2022-12-25T20:14:49.628Z,100396.78
2022-12-25T20:17:19.240Z,100394.16
2022-12-25T20:19:48.105Z,100342.81
2022-12-25T20:22:17.601Z,100354.88
2022-12-25T20:24:49.119Z,100126.78
2022-12-25T20:27:18.393Z,100394.06
2022-12-25T20:29:48.619Z,100396.72
2022-12-25T20:32:19.059Z,100375.75
2022-12-25T20:34:48.194Z,100293.00
2022-12-25T20:37:18.548Z,100373.00
2022-12-25T20:39:49.009Z,100390.56
2022-12-25T20:42:18.963Z,100380.88
2022-12-25T20:44:48.756Z,100376.47
2022-12-25T20:47:21.409Z,100368.53
2022-12-25T20:49:51.112Z,100367.63
2022-12-25T20:52:23.848Z,100163.88
2022-12-25T20:54:58.061Z,100363.22
2022-12-25T20:57:33.658Z,100198.69
2022-12-25T21:00:14.852Z,100339.66
2022-12-25T21:02:48.014Z,100356.22
2022-12-25T21:05:17.745Z,100364.81
2022-12-25T21:07:46.426Z,100361.25
2022-12-25T21:10:17.303Z,100370.00
2022-12-25T21:12:46.381Z,100369.94
2022-12-25T21:15:15.899Z,100351.47
2022-12-25T21:17:45.066Z,100276.47
2022-12-25T21:20:13.779Z,100209.47
2022-12-25T21:22:42.940Z,100349.59
2022-12-25T21:25:13.029Z,100269.50
2022-12-25T21:27:47.721Z,100071.91
2022-12-25T21:30:16.788Z,100177.97
2022-12-25T21:33:04.696Z,100200.53
2022-12-25T21:35:36.720Z,100340.72
2022-12-25T21:38:08.489Z,100244.13
2022-12-25T21:40:43.181Z,100262.34
2022-12-25T21:43:15.232Z,100163.97
2022-12-25T21:45:43.955Z,100205.69
2022-12-25T21:48:15.908Z,100342.38
2022-12-25T21:51:04.146Z,100344.09
2022-12-25T21:53:33.337Z,100337.06
2022-12-25T21:56:03.235Z,100235.19
2022-12-25T21:58:33.522Z,100270.84
2022-12-25T22:01:04.680Z,100282.19
2022-12-25T22:03:33.789Z,100336.97
2022-12-25T22:06:21.811Z,100253.50
2022-12-25T22:08:51.275Z,100339.63
2022-12-25T22:11:38.088Z,100242.06
2022-12-25T22:14:51.936Z,100332.56
2022-12-25T22:17:32.235Z,100332.56
2022-12-25T22:20:01.116Z,100149.72
2022-12-25T22:22:31.670Z,100253.28
2022-12-25T22:25:03.510Z,100311.44
2022-12-25T22:27:38.034Z,100314.03
2022-12-25T22:30:12.994Z,100322.81
2022-12-25T22:32:42.223Z,100314.91
2022-12-25T22:35:13.238Z,100307.31
2022-12-25T22:37:44.860Z,100105.56
2022-12-25T22:40:18.006Z,100226.22
2022-12-25T22:42:47.300Z,100329.75
2022-12-25T22:45:17.555Z,100196.59
2022-12-25T22:47:46.516Z,100311.28
2022-12-25T22:50:16.514Z,100290.41
2022-12-25T22:52:50.887Z,100310.44
2022-12-25T22:55:22.341Z,100319.28
2022-12-25T22:57:52.171Z,100325.44
2022-12-25T23:00:22.630Z,100273.09
2022-12-25T23:02:51.365Z,100241.66
2022-12-25T23:05:21.819Z,100306.00
2022-12-25T23:07:52.646Z,100301.59
2022-12-25T23:10:22.120Z,100312.13
2022-12-25T23:13:08.813Z,100299.81
2022-12-25T23:15:40.928Z,100267.75
2022-12-25T23:18:27.738Z,100294.88
2022-12-25T23:21:18.805Z,100274.63
2022-12-25T23:24:05.949Z,100257.97
2022-12-25T23:26:34.561Z,100234.78
2022-12-25T23:29:26.459Z,100073.06
2022-12-25T23:31:58.265Z,100213.78
2022-12-25T23:34:30.996Z,100010.19
2022-12-25T23:37:01.357Z,100265.75
2022-12-25T23:39:30.280Z,100255.41
2022-12-25T23:41:59.388Z,100263.94
2022-12-25T23:44:29.733Z,100256.88
2022-12-25T23:47:00.855Z,100161.22
2022-12-25T23:49:30.976Z,100256.81
2022-12-25T23:52:00.043Z,100262.09
2022-12-25T23:54:31.302Z,100208.97
2022-12-25T23:57:03.404Z,100054.22
2022-12-25T23:59:33.253Z,100246.28
